sensor_id;sensor_type;location;lat;lon;timestamp;P1;durP1;ratioP1;P2;durP2;ratioP2
64601;SDS011;51013;42.630;23.192;2023-02-23T00:02:04;11.45;;;5.38;;
64601;SDS011;51013;42.630;23.192;2023-02-23T00:04:32;24.05;;;8.68;;
64601;SDS011;51013;42.630;23.192;2023-02-23T00:07:00;23.30;;;8.05;;
64601;SDS011;51013;42.630;23.192;2023-02-23T00:09:27;17.55;;;6.70;;
64601;SDS011;51013;42.630;23.192;2023-02-23T00:11:59;17.80;;;5.90;;
64601;SDS011;51013;42.630;23.192;2023-02-23T00:14:32;12.70;;;4.97;;
64601;SDS011;51013;42.630;23.192;2023-02-23T00:17:00;12.13;;;4.20;;
64601;SDS011;51013;42.630;23.192;2023-02-23T00:19:27;10.35;;;4.13;;
64601;SDS011;51013;42.630;23.192;2023-02-23T00:21:54;13.20;;;4.03;;
64601;SDS011;51013;42.630;23.192;2023-02-23T00:24:22;14.30;;;4.45;;
64601;SDS011;51013;42.630;23.192;2023-02-23T00:26:51;65.13;;;21.98;;
64601;SDS011;51013;42.630;23.192;2023-02-23T00:29:19;15.98;;;6.20;;
64601;SDS011;51013;42.630;23.192;2023-02-23T00:31:47;9.38;;;4.45;;
64601;SDS011;51013;42.630;23.192;2023-02-23T00:34:17;8.82;;;3.60;;
64601;SDS011;51013;42.630;23.192;2023-02-23T00:36:48;11.60;;;4.70;;
64601;SDS011;51013;42.630;23.192;2023-02-23T00:39:15;9.32;;;3.55;;
64601;SDS011;51013;42.630;23.192;2023-02-23T00:41:46;8.95;;;3.17;;
64601;SDS011;51013;42.630;23.192;2023-02-23T00:44:13;6.13;;;3.50;;
64601;SDS011;51013;42.630;23.192;2023-02-23T00:46:41;9.15;;;4.20;;
64601;SDS011;51013;42.630;23.192;2023-02-23T00:49:09;7.43;;;3.70;;
64601;SDS011;51013;42.630;23.192;2023-02-23T00:51:38;8.18;;;3.50;;
64601;SDS011;51013;42.630;23.192;2023-02-23T00:54:05;11.60;;;4.10;;
64601;SDS011;51013;42.630;23.192;2023-02-23T00:56:32;10.05;;;4.97;;
64601;SDS011;51013;42.630;23.192;2023-02-23T00:58:59;13.27;;;4.60;;
64601;SDS011;51013;42.630;23.192;2023-02-23T01:01:26;10.75;;;4.25;;
64601;SDS011;51013;42.630;23.192;2023-02-23T01:03:53;15.43;;;5.05;;
64601;SDS011;51013;42.630;23.192;2023-02-23T01:06:20;11.68;;;4.40;;
64601;SDS011;51013;42.630;23.192;2023-02-23T01:08:49;8.95;;;3.92;;
64601;SDS011;51013;42.630;23.192;2023-02-23T01:11:21;10.13;;;3.78;;
64601;SDS011;51013;42.630;23.192;2023-02-23T01:13:52;7.97;;;4.05;;
64601;SDS011;51013;42.630;23.192;2023-02-23T01:16:22;11.55;;;4.50;;
64601;SDS011;51013;42.630;23.192;2023-02-23T01:18:52;18.55;;;6.68;;
64601;SDS011;51013;42.630;23.192;2023-02-23T01:21:20;14.82;;;5.82;;
64601;SDS011;51013;42.630;23.192;2023-02-23T01:23:50;16.40;;;6.75;;
64601;SDS011;51013;42.630;23.192;2023-02-23T01:26:18;15.13;;;5.43;;
64601;SDS011;51013;42.630;23.192;2023-02-23T01:28:47;12.45;;;5.28;;
64601;SDS011;51013;42.630;23.192;2023-02-23T01:31:14;10.70;;;4.50;;
64601;SDS011;51013;42.630;23.192;2023-02-23T01:33:41;11.38;;;5.03;;
64601;SDS011;51013;42.630;23.192;2023-02-23T01:36:08;11.43;;;4.90;;
64601;SDS011;51013;42.630;23.192;2023-02-23T01:38:34;10.07;;;4.95;;
64601;SDS011;51013;42.630;23.192;2023-02-23T01:41:03;12.50;;;4.70;;
64601;SDS011;51013;42.630;23.192;2023-02-23T01:43:33;11.95;;;4.72;;
64601;SDS011;51013;42.630;23.192;2023-02-23T01:46:01;12.30;;;4.80;;
64601;SDS011;51013;42.630;23.192;2023-02-23T01:48:29;10.25;;;4.55;;
64601;SDS011;51013;42.630;23.192;2023-02-23T01:53:28;7.72;;;3.70;;
64601;SDS011;51013;42.630;23.192;2023-02-23T01:55:59;7.50;;;3.77;;
64601;SDS011;51013;42.630;23.192;2023-02-23T01:58:36;10.52;;;4.40;;
64601;SDS011;51013;42.630;23.192;2023-02-23T02:01:07;9.63;;;4.50;;
64601;SDS011;51013;42.630;23.192;2023-02-23T02:03:37;10.40;;;4.50;;
64601;SDS011;51013;42.630;23.192;2023-02-23T02:06:07;9.73;;;4.30;;
64601;SDS011;51013;42.630;23.192;2023-02-23T02:11:09;7.17;;;3.33;;
64601;SDS011;51013;42.630;23.192;2023-02-23T02:13:52;5.97;;;3.30;;
64601;SDS011;51013;42.630;23.192;2023-02-23T02:16:25;7.55;;;3.58;;
64601;SDS011;51013;42.630;23.192;2023-02-23T02:19:13;7.78;;;3.70;;
64601;SDS011;51013;42.630;23.192;2023-02-23T02:27:51;7.57;;;3.38;;
64601;SDS011;51013;42.630;23.192;2023-02-23T02:30:44;9.48;;;3.65;;
64601;SDS011;51013;42.630;23.192;2023-02-23T02:39:40;8.45;;;4.57;;
64601;SDS011;51013;42.630;23.192;2023-02-23T02:42:19;9.48;;;4.93;;
64601;SDS011;51013;42.630;23.192;2023-02-23T02:44:52;9.10;;;4.63;;
64601;SDS011;51013;42.630;23.192;2023-02-23T02:47:25;9.75;;;4.90;;
64601;SDS011;51013;42.630;23.192;2023-02-23T02:50:01;10.10;;;5.15;;
64601;SDS011;51013;42.630;23.192;2023-02-23T02:52:34;8.95;;;4.40;;
64601;SDS011;51013;42.630;23.192;2023-02-23T02:55:06;20.33;;;6.80;;
64601;SDS011;51013;42.630;23.192;2023-02-23T02:57:40;21.02;;;7.50;;
64601;SDS011;51013;42.630;23.192;2023-02-23T03:00:12;15.52;;;6.30;;
64601;SDS011;51013;42.630;23.192;2023-02-23T03:02:59;13.48;;;5.28;;
64601;SDS011;51013;42.630;23.192;2023-02-23T03:05:45;12.85;;;5.28;;
64601;SDS011;51013;42.630;23.192;2023-02-23T03:08:36;13.40;;;4.82;;
64601;SDS011;51013;42.630;23.192;2023-02-23T03:11:26;9.73;;;5.05;;
64601;SDS011;51013;42.630;23.192;2023-02-23T03:14:21;11.73;;;5.00;;
64601;SDS011;51013;42.630;23.192;2023-02-23T03:17:15;9.45;;;4.07;;
64601;SDS011;51013;42.630;23.192;2023-02-23T03:20:09;8.80;;;4.07;;
64601;SDS011;51013;42.630;23.192;2023-02-23T03:23:03;8.70;;;4.13;;
64601;SDS011;51013;42.630;23.192;2023-02-23T03:26:03;10.68;;;4.20;;
64601;SDS011;51013;42.630;23.192;2023-02-23T03:28:51;9.57;;;4.45;;
64601;SDS011;51013;42.630;23.192;2023-02-23T03:31:43;13.27;;;3.83;;
64601;SDS011;51013;42.630;23.192;2023-02-23T03:34:32;9.52;;;3.50;;
64601;SDS011;51013;42.630;23.192;2023-02-23T03:37:23;9.97;;;4.40;;
64601;SDS011;51013;42.630;23.192;2023-02-23T03:40:12;10.23;;;4.65;;
64601;SDS011;51013;42.630;23.192;2023-02-23T03:43:04;11.98;;;4.78;;
64601;SDS011;51013;42.630;23.192;2023-02-23T03:45:51;47.78;;;14.48;;
64601;SDS011;51013;42.630;23.192;2023-02-23T03:48:38;25.38;;;7.43;;
64601;SDS011;51013;42.630;23.192;2023-02-23T03:51:26;28.13;;;9.20;;
64601;SDS011;51013;42.630;23.192;2023-02-23T03:54:14;28.98;;;8.82;;
64601;SDS011;51013;42.630;23.192;2023-02-23T03:57:01;33.75;;;6.68;;
64601;SDS011;51013;42.630;23.192;2023-02-23T03:59:51;28.02;;;6.45;;
64601;SDS011;51013;42.630;23.192;2023-02-23T04:02:39;29.15;;;7.35;;
64601;SDS011;51013;42.630;23.192;2023-02-23T04:05:26;23.88;;;6.20;;
64601;SDS011;51013;42.630;23.192;2023-02-23T04:08:13;25.38;;;6.45;;
64601;SDS011;51013;42.630;23.192;2023-02-23T04:11:01;30.15;;;6.95;;
64601;SDS011;51013;42.630;23.192;2023-02-23T04:13:55;22.75;;;6.85;;
64601;SDS011;51013;42.630;23.192;2023-02-23T04:16:26;23.27;;;6.03;;
64601;SDS011;51013;42.630;23.192;2023-02-23T04:18:53;28.17;;;8.00;;
64601;SDS011;51013;42.630;23.192;2023-02-23T04:21:20;21.67;;;6.28;;
64601;SDS011;51013;42.630;23.192;2023-02-23T04:23:47;14.60;;;5.90;;
64601;SDS011;51013;42.630;23.192;2023-02-23T04:26:14;17.00;;;7.05;;
64601;SDS011;51013;42.630;23.192;2023-02-23T04:28:41;19.85;;;7.32;;
64601;SDS011;51013;42.630;23.192;2023-02-23T04:31:08;18.17;;;6.38;;
64601;SDS011;51013;42.630;23.192;2023-02-23T04:33:36;11.75;;;6.03;;
64601;SDS011;51013;42.630;23.192;2023-02-23T04:36:03;15.43;;;7.53;;
64601;SDS011;51013;42.630;23.192;2023-02-23T04:38:30;15.07;;;6.07;;
64601;SDS011;51013;42.630;23.192;2023-02-23T04:40:57;14.75;;;6.47;;
64601;SDS011;51013;42.630;23.192;2023-02-23T04:43:23;12.27;;;6.13;;
64601;SDS011;51013;42.630;23.192;2023-02-23T04:45:50;12.15;;;5.53;;
64601;SDS011;51013;42.630;23.192;2023-02-23T04:48:17;13.15;;;6.50;;
64601;SDS011;51013;42.630;23.192;2023-02-23T04:50:45;19.48;;;7.10;;
64601;SDS011;51013;42.630;23.192;2023-02-23T04:53:11;16.02;;;6.93;;
64601;SDS011;51013;42.630;23.192;2023-02-23T04:55:38;13.95;;;6.30;;
64601;SDS011;51013;42.630;23.192;2023-02-23T04:58:05;14.88;;;7.05;;
64601;SDS011;51013;42.630;23.192;2023-02-23T05:00:32;18.58;;;7.10;;
64601;SDS011;51013;42.630;23.192;2023-02-23T05:02:58;13.73;;;6.68;;
64601;SDS011;51013;42.630;23.192;2023-02-23T05:05:25;12.30;;;6.45;;
64601;SDS011;51013;42.630;23.192;2023-02-23T05:07:53;15.32;;;6.22;;
64601;SDS011;51013;42.630;23.192;2023-02-23T05:10:20;13.77;;;6.88;;
64601;SDS011;51013;42.630;23.192;2023-02-23T05:12:47;13.15;;;6.55;;
64601;SDS011;51013;42.630;23.192;2023-02-23T05:15:13;17.73;;;7.20;;
64601;SDS011;51013;42.630;23.192;2023-02-23T05:17:41;19.00;;;7.20;;
64601;SDS011;51013;42.630;23.192;2023-02-23T05:20:08;14.73;;;7.78;;
64601;SDS011;51013;42.630;23.192;2023-02-23T05:22:38;15.98;;;7.53;;
64601;SDS011;51013;42.630;23.192;2023-02-23T05:25:07;19.58;;;8.93;;
64601;SDS011;51013;42.630;23.192;2023-02-23T05:27:36;16.77;;;8.38;;
64601;SDS011;51013;42.630;23.192;2023-02-23T05:30:03;21.58;;;8.63;;
64601;SDS011;51013;42.630;23.192;2023-02-23T05:32:31;20.33;;;9.35;;
64601;SDS011;51013;42.630;23.192;2023-02-23T05:34:59;17.30;;;7.93;;
64601;SDS011;51013;42.630;23.192;2023-02-23T05:37:26;21.33;;;8.32;;
64601;SDS011;51013;42.630;23.192;2023-02-23T05:39:53;23.05;;;9.13;;
64601;SDS011;51013;42.630;23.192;2023-02-23T05:42:21;20.85;;;8.82;;
64601;SDS011;51013;42.630;23.192;2023-02-23T05:44:47;15.23;;;7.80;;
64601;SDS011;51013;42.630;23.192;2023-02-23T05:47:14;19.98;;;8.50;;
64601;SDS011;51013;42.630;23.192;2023-02-23T05:49:41;18.17;;;8.40;;
64601;SDS011;51013;42.630;23.192;2023-02-23T05:52:10;16.52;;;8.45;;
64601;SDS011;51013;42.630;23.192;2023-02-23T05:54:37;18.75;;;8.20;;
64601;SDS011;51013;42.630;23.192;2023-02-23T05:57:04;14.60;;;8.13;;
64601;SDS011;51013;42.630;23.192;2023-02-23T05:59:33;21.35;;;8.60;;
64601;SDS011;51013;42.630;23.192;2023-02-23T06:02:00;18.27;;;9.07;;
64601;SDS011;51013;42.630;23.192;2023-02-23T06:04:28;17.95;;;9.20;;
64601;SDS011;51013;42.630;23.192;2023-02-23T06:06:55;21.38;;;9.68;;
64601;SDS011;51013;42.630;23.192;2023-02-23T06:09:22;18.85;;;9.18;;
64601;SDS011;51013;42.630;23.192;2023-02-23T06:11:49;24.63;;;9.55;;
64601;SDS011;51013;42.630;23.192;2023-02-23T06:14:16;24.00;;;10.13;;
64601;SDS011;51013;42.630;23.192;2023-02-23T06:16:44;25.23;;;10.45;;
64601;SDS011;51013;42.630;23.192;2023-02-23T06:19:12;20.65;;;10.32;;
64601;SDS011;51013;42.630;23.192;2023-02-23T06:21:39;18.95;;;9.50;;
64601;SDS011;51013;42.630;23.192;2023-02-23T06:24:06;22.33;;;10.95;;
64601;SDS011;51013;42.630;23.192;2023-02-23T06:26:33;24.23;;;11.98;;
64601;SDS011;51013;42.630;23.192;2023-02-23T06:28:59;26.02;;;12.85;;
64601;SDS011;51013;42.630;23.192;2023-02-23T06:31:26;29.63;;;12.43;;
64601;SDS011;51013;42.630;23.192;2023-02-23T06:33:54;25.85;;;12.68;;
64601;SDS011;51013;42.630;23.192;2023-02-23T06:36:21;24.00;;;12.20;;
64601;SDS011;51013;42.630;23.192;2023-02-23T06:38:48;22.48;;;11.90;;
64601;SDS011;51013;42.630;23.192;2023-02-23T06:41:14;29.70;;;13.23;;
64601;SDS011;51013;42.630;23.192;2023-02-23T06:43:41;32.13;;;14.77;;
64601;SDS011;51013;42.630;23.192;2023-02-23T06:46:09;29.92;;;14.65;;
64601;SDS011;51013;42.630;23.192;2023-02-23T06:48:36;26.92;;;13.73;;
64601;SDS011;51013;42.630;23.192;2023-02-23T06:51:04;32.22;;;15.57;;
64601;SDS011;51013;42.630;23.192;2023-02-23T06:53:31;30.67;;;15.10;;
64601;SDS011;51013;42.630;23.192;2023-02-23T06:55:57;29.70;;;15.77;;
64601;SDS011;51013;42.630;23.192;2023-02-23T06:58:25;35.10;;;15.63;;
64601;SDS011;51013;42.630;23.192;2023-02-23T07:00:53;34.60;;;16.35;;
64601;SDS011;51013;42.630;23.192;2023-02-23T07:03:20;31.55;;;14.50;;
64601;SDS011;51013;42.630;23.192;2023-02-23T07:05:47;29.23;;;14.35;;
64601;SDS011;51013;42.630;23.192;2023-02-23T07:08:16;27.25;;;14.13;;
64601;SDS011;51013;42.630;23.192;2023-02-23T07:10:43;46.00;;;16.95;;
64601;SDS011;51013;42.630;23.192;2023-02-23T07:13:11;44.40;;;20.35;;
64601;SDS011;51013;42.630;23.192;2023-02-23T07:15:38;67.68;;;25.58;;
64601;SDS011;51013;42.630;23.192;2023-02-23T07:18:05;86.13;;;31.38;;
64601;SDS011;51013;42.630;23.192;2023-02-23T07:20:33;98.28;;;35.97;;
64601;SDS011;51013;42.630;23.192;2023-02-23T07:23:00;103.05;;;38.28;;
64601;SDS011;51013;42.630;23.192;2023-02-23T07:25:28;83.35;;;33.10;;
64601;SDS011;51013;42.630;23.192;2023-02-23T07:27:55;80.78;;;33.10;;
64601;SDS011;51013;42.630;23.192;2023-02-23T07:30:23;62.88;;;25.58;;
64601;SDS011;51013;42.630;23.192;2023-02-23T07:32:50;51.38;;;23.98;;
64601;SDS011;51013;42.630;23.192;2023-02-23T07:35:17;51.80;;;21.50;;
64601;SDS011;51013;42.630;23.192;2023-02-23T07:37:44;32.28;;;13.00;;
64601;SDS011;51013;42.630;23.192;2023-02-23T07:40:12;23.75;;;10.20;;
64601;SDS011;51013;42.630;23.192;2023-02-23T07:42:40;22.77;;;10.43;;
64601;SDS011;51013;42.630;23.192;2023-02-23T07:45:08;23.83;;;9.73;;
64601;SDS011;51013;42.630;23.192;2023-02-23T07:47:36;19.75;;;8.25;;
64601;SDS011;51013;42.630;23.192;2023-02-23T07:50:04;14.05;;;7.03;;
64601;SDS011;51013;42.630;23.192;2023-02-23T07:52:34;12.10;;;6.45;;
64601;SDS011;51013;42.630;23.192;2023-02-23T07:55:01;12.43;;;5.40;;
64601;SDS011;51013;42.630;23.192;2023-02-23T07:57:28;13.82;;;5.50;;
64601;SDS011;51013;42.630;23.192;2023-02-23T07:59:56;15.15;;;5.40;;
64601;SDS011;51013;42.630;23.192;2023-02-23T08:02:23;14.05;;;6.55;;
64601;SDS011;51013;42.630;23.192;2023-02-23T08:04:50;12.15;;;5.78;;
64601;SDS011;51013;42.630;23.192;2023-02-23T08:07:18;16.83;;;7.32;;
64601;SDS011;51013;42.630;23.192;2023-02-23T08:09:45;8.30;;;4.80;;
64601;SDS011;51013;42.630;23.192;2023-02-23T08:12:13;13.80;;;6.22;;
64601;SDS011;51013;42.630;23.192;2023-02-23T08:14:41;13.18;;;5.63;;
64601;SDS011;51013;42.630;23.192;2023-02-23T08:17:10;11.98;;;6.40;;
64601;SDS011;51013;42.630;23.192;2023-02-23T08:19:37;15.10;;;7.30;;
64601;SDS011;51013;42.630;23.192;2023-02-23T08:22:04;16.73;;;8.07;;
64601;SDS011;51013;42.630;23.192;2023-02-23T08:24:31;14.60;;;7.60;;
64601;SDS011;51013;42.630;23.192;2023-02-23T08:26:58;10.93;;;6.43;;
64601;SDS011;51013;42.630;23.192;2023-02-23T08:29:26;16.80;;;8.15;;
64601;SDS011;51013;42.630;23.192;2023-02-23T08:31:53;19.88;;;10.25;;
64601;SDS011;51013;42.630;23.192;2023-02-23T08:34:21;16.00;;;8.23;;
64601;SDS011;51013;42.630;23.192;2023-02-23T08:36:49;14.55;;;7.82;;
64601;SDS011;51013;42.630;23.192;2023-02-23T08:39:18;17.55;;;8.23;;
64601;SDS011;51013;42.630;23.192;2023-02-23T08:41:46;21.40;;;10.13;;
64601;SDS011;51013;42.630;23.192;2023-02-23T08:44:12;17.13;;;9.57;;
64601;SDS011;51013;42.630;23.192;2023-02-23T08:46:39;18.75;;;9.98;;
64601;SDS011;51013;42.630;23.192;2023-02-23T08:49:06;18.05;;;8.73;;
64601;SDS011;51013;42.630;23.192;2023-02-23T08:51:36;18.65;;;10.80;;
64601;SDS011;51013;42.630;23.192;2023-02-23T08:54:02;18.42;;;9.93;;
64601;SDS011;51013;42.630;23.192;2023-02-23T08:56:34;20.85;;;11.38;;
64601;SDS011;51013;42.630;23.192;2023-02-23T08:59:00;23.27;;;11.45;;
64601;SDS011;51013;42.630;23.192;2023-02-23T09:01:27;26.27;;;12.35;;
64601;SDS011;51013;42.630;23.192;2023-02-23T09:03:54;18.77;;;11.27;;
64601;SDS011;51013;42.630;23.192;2023-02-23T09:06:21;26.38;;;11.82;;
64601;SDS011;51013;42.630;23.192;2023-02-23T09:08:52;21.00;;;11.13;;
64601;SDS011;51013;42.630;23.192;2023-02-23T09:11:20;22.08;;;12.70;;
64601;SDS011;51013;42.630;23.192;2023-02-23T09:13:47;27.55;;;11.45;;
64601;SDS011;51013;42.630;23.192;2023-02-23T09:16:14;26.08;;;12.32;;
64601;SDS011;51013;42.630;23.192;2023-02-23T09:18:41;26.85;;;12.88;;
64601;SDS011;51013;42.630;23.192;2023-02-23T09:21:13;22.48;;;12.02;;
64601;SDS011;51013;42.630;23.192;2023-02-23T09:23:45;21.45;;;12.52;;
64601;SDS011;51013;42.630;23.192;2023-02-23T09:26:15;21.35;;;12.95;;
64601;SDS011;51013;42.630;23.192;2023-02-23T09:28:42;24.60;;;12.90;;
64601;SDS011;51013;42.630;23.192;2023-02-23T09:31:10;25.55;;;12.23;;
64601;SDS011;51013;42.630;23.192;2023-02-23T09:33:38;22.58;;;13.32;;
64601;SDS011;51013;42.630;23.192;2023-02-23T09:36:06;28.67;;;14.45;;
64601;SDS011;51013;42.630;23.192;2023-02-23T09:38:33;24.52;;;13.50;;
64601;SDS011;51013;42.630;23.192;2023-02-23T09:41:00;24.80;;;13.52;;
64601;SDS011;51013;42.630;23.192;2023-02-23T09:43:29;29.25;;;13.68;;
64601;SDS011;51013;42.630;23.192;2023-02-23T09:46:05;30.00;;;12.90;;
64601;SDS011;51013;42.630;23.192;2023-02-23T09:48:39;29.95;;;13.13;;
64601;SDS011;51013;42.630;23.192;2023-02-23T09:51:07;23.63;;;11.93;;
64601;SDS011;51013;42.630;23.192;2023-02-23T09:53:41;26.85;;;12.65;;
64601;SDS011;51013;42.630;23.192;2023-02-23T09:56:13;20.83;;;10.82;;
64601;SDS011;51013;42.630;23.192;2023-02-23T09:58:49;23.60;;;11.15;;
64601;SDS011;51013;42.630;23.192;2023-02-23T10:04:11;24.60;;;11.50;;
64601;SDS011;51013;42.630;23.192;2023-02-23T10:06:47;23.33;;;11.02;;
64601;SDS011;51013;42.630;23.192;2023-02-23T10:09:20;25.27;;;10.50;;
64601;SDS011;51013;42.630;23.192;2023-02-23T10:11:55;19.45;;;10.23;;
64601;SDS011;51013;42.630;23.192;2023-02-23T10:14:37;21.60;;;8.98;;
64601;SDS011;51013;42.630;23.192;2023-02-23T10:17:23;15.48;;;8.48;;
64601;SDS011;51013;42.630;23.192;2023-02-23T10:20:00;17.02;;;8.77;;
64601;SDS011;51013;42.630;23.192;2023-02-23T10:22:38;18.50;;;9.20;;
64601;SDS011;51013;42.630;23.192;2023-02-23T10:25:06;19.63;;;9.15;;
64601;SDS011;51013;42.630;23.192;2023-02-23T10:27:39;18.48;;;10.07;;
64601;SDS011;51013;42.630;23.192;2023-02-23T10:30:14;23.13;;;10.82;;
64601;SDS011;51013;42.630;23.192;2023-02-23T10:32:46;19.20;;;9.35;;
64601;SDS011;51013;42.630;23.192;2023-02-23T10:35:18;21.60;;;9.73;;
64601;SDS011;51013;42.630;23.192;2023-02-23T10:37:46;16.83;;;8.93;;
64601;SDS011;51013;42.630;23.192;2023-02-23T10:40:14;16.35;;;9.07;;
64601;SDS011;51013;42.630;23.192;2023-02-23T10:42:42;17.77;;;9.65;;
64601;SDS011;51013;42.630;23.192;2023-02-23T10:45:13;20.08;;;9.50;;
64601;SDS011;51013;42.630;23.192;2023-02-23T10:47:43;18.65;;;10.13;;
64601;SDS011;51013;42.630;23.192;2023-02-23T10:50:12;17.30;;;9.45;;
64601;SDS011;51013;42.630;23.192;2023-02-23T10:52:40;18.67;;;9.77;;
64601;SDS011;51013;42.630;23.192;2023-02-23T10:55:19;18.48;;;9.10;;
64601;SDS011;51013;42.630;23.192;2023-02-23T10:57:59;17.00;;;9.10;;
64601;SDS011;51013;42.630;23.192;2023-02-23T11:00:29;24.05;;;9.70;;
64601;SDS011;51013;42.630;23.192;2023-02-23T11:02:58;23.48;;;9.75;;
64601;SDS011;51013;42.630;23.192;2023-02-23T11:05:29;24.00;;;10.25;;
64601;SDS011;51013;42.630;23.192;2023-02-23T11:08:09;15.23;;;9.50;;
64601;SDS011;51013;42.630;23.192;2023-02-23T11:10:37;22.45;;;9.23;;
64601;SDS011;51013;42.630;23.192;2023-02-23T11:13:03;21.25;;;10.30;;
64601;SDS011;51013;42.630;23.192;2023-02-23T11:15:32;19.60;;;9.85;;
64601;SDS011;51013;42.630;23.192;2023-02-23T11:18:17;19.88;;;9.50;;
64601;SDS011;51013;42.630;23.192;2023-02-23T11:20:46;17.38;;;10.13;;
64601;SDS011;51013;42.630;23.192;2023-02-23T11:23:16;25.17;;;10.15;;
64601;SDS011;51013;42.630;23.192;2023-02-23T11:25:47;18.98;;;10.23;;
64601;SDS011;51013;42.630;23.192;2023-02-23T11:28:20;18.35;;;10.23;;
64601;SDS011;51013;42.630;23.192;2023-02-23T11:30:56;18.50;;;9.25;;
64601;SDS011;51013;42.630;23.192;2023-02-23T11:33:27;26.67;;;11.65;;
64601;SDS011;51013;42.630;23.192;2023-02-23T11:36:11;21.60;;;10.43;;
64601;SDS011;51013;42.630;23.192;2023-02-23T11:38:41;17.23;;;9.80;;
64601;SDS011;51013;42.630;23.192;2023-02-23T11:41:16;17.63;;;10.18;;
64601;SDS011;51013;42.630;23.192;2023-02-23T11:43:46;25.33;;;10.85;;
64601;SDS011;51013;42.630;23.192;2023-02-23T11:46:16;23.42;;;10.55;;
64601;SDS011;51013;42.630;23.192;2023-02-23T11:48:47;20.90;;;10.33;;
64601;SDS011;51013;42.630;23.192;2023-02-23T11:51:21;19.50;;;9.43;;
64601;SDS011;51013;42.630;23.192;2023-02-23T11:53:50;23.50;;;10.63;;
64601;SDS011;51013;42.630;23.192;2023-02-23T11:56:18;22.77;;;9.38;;
64601;SDS011;51013;42.630;23.192;2023-02-23T11:58:47;19.27;;;8.82;;
64601;SDS011;51013;42.630;23.192;2023-02-23T12:03:49;14.98;;;8.65;;
64601;SDS011;51013;42.630;23.192;2023-02-23T12:06:25;25.07;;;8.23;;
64601;SDS011;51013;42.630;23.192;2023-02-23T12:08:55;18.05;;;8.43;;
64601;SDS011;51013;42.630;23.192;2023-02-23T12:11:28;14.90;;;8.15;;
64601;SDS011;51013;42.630;23.192;2023-02-23T12:14:01;15.73;;;7.93;;
64601;SDS011;51013;42.630;23.192;2023-02-23T12:16:34;14.25;;;7.22;;
64601;SDS011;51013;42.630;23.192;2023-02-23T12:19:05;13.60;;;6.75;;
64601;SDS011;51013;42.630;23.192;2023-02-23T12:21:45;16.30;;;6.60;;
64601;SDS011;51013;42.630;23.192;2023-02-23T12:24:17;19.08;;;7.35;;
64601;SDS011;51013;42.630;23.192;2023-02-23T12:26:55;12.93;;;7.18;;
64601;SDS011;51013;42.630;23.192;2023-02-23T12:29:28;14.05;;;7.38;;
64601;SDS011;51013;42.630;23.192;2023-02-23T12:32:03;13.02;;;6.93;;
64601;SDS011;51013;42.630;23.192;2023-02-23T12:34:38;14.18;;;6.93;;
64601;SDS011;51013;42.630;23.192;2023-02-23T12:37:17;16.83;;;8.40;;
64601;SDS011;51013;42.630;23.192;2023-02-23T12:39:56;23.67;;;9.88;;
64601;SDS011;51013;42.630;23.192;2023-02-23T12:42:31;22.95;;;7.32;;
64601;SDS011;51013;42.630;23.192;2023-02-23T12:45:03;23.45;;;7.22;;
64601;SDS011;51013;42.630;23.192;2023-02-23T12:47:34;13.38;;;6.85;;
64601;SDS011;51013;42.630;23.192;2023-02-23T12:50:09;15.95;;;7.00;;
64601;SDS011;51013;42.630;23.192;2023-02-23T12:52:40;13.25;;;6.43;;
64601;SDS011;51013;42.630;23.192;2023-02-23T12:55:12;11.48;;;5.93;;
64601;SDS011;51013;42.630;23.192;2023-02-23T12:57:41;22.50;;;8.48;;
64601;SDS011;51013;42.630;23.192;2023-02-23T13:03:10;11.68;;;6.25;;
64601;SDS011;51013;42.630;23.192;2023-02-23T13:05:49;10.52;;;6.10;;
64601;SDS011;51013;42.630;23.192;2023-02-23T13:08:25;10.98;;;5.30;;
64601;SDS011;51013;42.630;23.192;2023-02-23T13:11:01;8.80;;;5.57;;
64601;SDS011;51013;42.630;23.192;2023-02-23T13:13:37;11.57;;;5.40;;
64601;SDS011;51013;42.630;23.192;2023-02-23T13:16:13;12.75;;;5.38;;
64601;SDS011;51013;42.630;23.192;2023-02-23T13:18:45;9.85;;;5.32;;
64601;SDS011;51013;42.630;23.192;2023-02-23T13:21:21;9.45;;;5.45;;
64601;SDS011;51013;42.630;23.192;2023-02-23T13:23:55;13.13;;;5.38;;
64601;SDS011;51013;42.630;23.192;2023-02-23T13:26:29;12.77;;;5.57;;
64601;SDS011;51013;42.630;23.192;2023-02-23T13:29:04;19.95;;;5.28;;
64601;SDS011;51013;42.630;23.192;2023-02-23T13:31:36;17.05;;;5.10;;
64601;SDS011;51013;42.630;23.192;2023-02-23T13:34:09;25.92;;;8.55;;
64601;SDS011;51013;42.630;23.192;2023-02-23T13:36:40;12.43;;;5.70;;
64601;SDS011;51013;42.630;23.192;2023-02-23T13:39:19;25.42;;;6.75;;
64601;SDS011;51013;42.630;23.192;2023-02-23T13:41:58;18.58;;;7.85;;
64601;SDS011;51013;42.630;23.192;2023-02-23T13:44:35;20.17;;;7.53;;
64601;SDS011;51013;42.630;23.192;2023-02-23T13:47:08;32.22;;;12.15;;
64601;SDS011;51013;42.630;23.192;2023-02-23T13:49:45;21.00;;;7.00;;
64601;SDS011;51013;42.630;23.192;2023-02-23T13:52:27;24.33;;;9.07;;
64601;SDS011;51013;42.630;23.192;2023-02-23T13:54:56;15.60;;;7.57;;
64601;SDS011;51013;42.630;23.192;2023-02-23T13:57:27;15.98;;;7.03;;
64601;SDS011;51013;42.630;23.192;2023-02-23T13:59:56;15.85;;;6.78;;
64601;SDS011;51013;42.630;23.192;2023-02-23T14:02:32;34.85;;;13.27;;
64601;SDS011;51013;42.630;23.192;2023-02-23T14:05:04;53.40;;;15.88;;
64601;SDS011;51013;42.630;23.192;2023-02-23T14:07:37;17.98;;;6.72;;
64601;SDS011;51013;42.630;23.192;2023-02-23T14:10:07;29.15;;;10.93;;
64601;SDS011;51013;42.630;23.192;2023-02-23T14:12:40;34.63;;;11.60;;
64601;SDS011;51013;42.630;23.192;2023-02-23T14:15:39;15.80;;;6.85;;
64601;SDS011;51013;42.630;23.192;2023-02-23T14:18:28;25.15;;;7.82;;
64601;SDS011;51013;42.630;23.192;2023-02-23T14:21:02;17.60;;;7.85;;
64601;SDS011;51013;42.630;23.192;2023-02-23T14:23:48;29.02;;;9.20;;
64601;SDS011;51013;42.630;23.192;2023-02-23T14:31:52;13.60;;;6.10;;
64601;SDS011;51013;42.630;23.192;2023-02-23T14:34:20;11.38;;;5.78;;
64601;SDS011;51013;42.630;23.192;2023-02-23T14:36:49;13.88;;;5.32;;
64601;SDS011;51013;42.630;23.192;2023-02-23T14:39:21;10.43;;;6.07;;
64601;SDS011;51013;42.630;23.192;2023-02-23T14:41:51;17.53;;;6.80;;
64601;SDS011;51013;42.630;23.192;2023-02-23T14:44:20;10.25;;;5.30;;
64601;SDS011;51013;42.630;23.192;2023-02-23T14:46:56;15.35;;;7.10;;
64601;SDS011;51013;42.630;23.192;2023-02-23T14:49:27;76.65;;;17.20;;
64601;SDS011;51013;42.630;23.192;2023-02-23T14:52:04;13.90;;;4.97;;
64601;SDS011;51013;42.630;23.192;2023-02-23T14:54:33;11.10;;;5.10;;
64601;SDS011;51013;42.630;23.192;2023-02-23T14:57:03;10.88;;;5.82;;
64601;SDS011;51013;42.630;23.192;2023-02-23T14:59:36;16.02;;;8.80;;
64601;SDS011;51013;42.630;23.192;2023-02-23T15:02:08;11.70;;;6.43;;
64601;SDS011;51013;42.630;23.192;2023-02-23T15:04:36;9.55;;;5.88;;
64601;SDS011;51013;42.630;23.192;2023-02-23T15:07:05;13.27;;;4.80;;
64601;SDS011;51013;42.630;23.192;2023-02-23T15:09:43;9.05;;;5.50;;
64601;SDS011;51013;42.630;23.192;2023-02-23T15:12:12;11.68;;;6.10;;
64601;SDS011;51013;42.630;23.192;2023-02-23T15:14:42;19.83;;;7.03;;
64601;SDS011;51013;42.630;23.192;2023-02-23T15:17:13;19.92;;;5.35;;